sensor_id;sensor_type;location;lat;lon;timestamp;pressure;altitude;pressure_sealevel;temperature;humidity
11349;BME280;5729;43.570;27.826;2023-02-17T00:01:20;99816.16;;;4.31;100.00
11349;BME280;5729;43.570;27.826;2023-02-17T00:03:47;99805.31;;;4.28;100.00
11349;BME280;5729;43.570;27.826;2023-02-17T00:06:14;99817.75;;;4.32;100.00
11349;BME280;5729;43.570;27.826;2023-02-17T00:08:40;99818.44;;;4.38;100.00
11349;BME280;5729;43.570;27.826;2023-02-17T00:11:05;99819.53;;;4.37;100.00
11349;BME280;5729;43.570;27.826;2023-02-17T00:13:31;99812.81;;;4.40;100.00
11349;BME280;5729;43.570;27.826;2023-02-17T00:15:57;99800.84;;;4.37;100.00
11349;BME280;5729;43.570;27.826;2023-02-17T00:18:23;99804.00;;;4.39;100.00
11349;BME280;5729;43.570;27.826;2023-02-17T00:20:48;99802.13;;;4.40;100.00
11349;BME280;5729;43.570;27.826;2023-02-17T00:23:13;99799.75;;;4.38;100.00
11349;BME280;5729;43.570;27.826;2023-02-17T00:25:39;99797.78;;;4.44;100.00
11349;BME280;5729;43.570;27.826;2023-02-17T00:28:05;99800.44;;;4.44;100.00
11349;BME280;5729;43.570;27.826;2023-02-17T00:30:30;99795.59;;;4.46;100.00
11349;BME280;5729;43.570;27.826;2023-02-17T00:32:56;99783.75;;;4.38;100.00
11349;BME280;5729;43.570;27.826;2023-02-17T00:35:21;99781.66;;;4.35;100.00
11349;BME280;5729;43.570;27.826;2023-02-17T00:37:47;99779.59;;;4.32;100.00
11349;BME280;5729;43.570;27.826;2023-02-17T00:40:13;99781.47;;;4.31;100.00
11349;BME280;5729;43.570;27.826;2023-02-17T00:42:38;99786.13;;;4.26;100.00
11349;BME280;5729;43.570;27.826;2023-02-17T00:45:04;99763.69;;;4.13;100.00
11349;BME280;5729;43.570;27.826;2023-02-17T00:47:30;99791.47;;;4.26;100.00
11349;BME280;5729;43.570;27.826;2023-02-17T00:49:55;99778.63;;;4.28;100.00
11349;BME280;5729;43.570;27.826;2023-02-17T00:52:21;99778.91;;;4.26;100.00
11349;BME280;5729;43.570;27.826;2023-02-17T00:54:47;99766.16;;;4.23;100.00
11349;BME280;5729;43.570;27.826;2023-02-17T00:57:12;99767.81;;;4.33;100.00
11349;BME280;5729;43.570;27.826;2023-02-17T00:59:38;99782.16;;;4.37;100.00
11349;BME280;5729;43.570;27.826;2023-02-17T01:02:03;99780.16;;;4.43;100.00
11349;BME280;5729;43.570;27.826;2023-02-17T01:04:28;99762.34;;;4.52;100.00
11349;BME280;5729;43.570;27.826;2023-02-17T01:06:54;99761.75;;;4.55;100.00
11349;BME280;5729;43.570;27.826;2023-02-17T01:09:19;99760.38;;;4.57;100.00
11349;BME280;5729;43.570;27.826;2023-02-17T01:11:45;99758.81;;;4.56;100.00
11349;BME280;5729;43.570;27.826;2023-02-17T01:14:11;99753.03;;;4.63;100.00
11349;BME280;5729;43.570;27.826;2023-02-17T01:16:39;99752.09;;;4.59;100.00
11349;BME280;5729;43.570;27.826;2023-02-17T01:19:07;99747.91;;;4.66;100.00
11349;BME280;5729;43.570;27.826;2023-02-17T01:21:34;99748.50;;;4.63;100.00
11349;BME280;5729;43.570;27.826;2023-02-17T01:24:01;99740.19;;;4.65;100.00
11349;BME280;5729;43.570;27.826;2023-02-17T01:26:28;99743.94;;;4.64;100.00
11349;BME280;5729;43.570;27.826;2023-02-17T01:28:54;99741.19;;;4.69;100.00
11349;BME280;5729;43.570;27.826;2023-02-17T01:31:21;99739.31;;;4.69;100.00
11349;BME280;5729;43.570;27.826;2023-02-17T01:33:47;99736.81;;;4.73;100.00
11349;BME280;5729;43.570;27.826;2023-02-17T01:36:15;99730.38;;;4.74;100.00
11349;BME280;5729;43.570;27.826;2023-02-17T01:38:42;99736.81;;;4.73;100.00
11349;BME280;5729;43.570;27.826;2023-02-17T01:41:08;99730.69;;;4.72;100.00
11349;BME280;5729;43.570;27.826;2023-02-17T01:43:35;99728.31;;;4.71;100.00
11349;BME280;5729;43.570;27.826;2023-02-17T01:46:04;99729.41;;;4.70;100.00
11349;BME280;5729;43.570;27.826;2023-02-17T01:48:43;99723.22;;;4.61;100.00
11349;BME280;5729;43.570;27.826;2023-02-17T01:51:17;99730.50;;;4.69;100.00
11349;BME280;5729;43.570;27.826;2023-02-17T01:54:14;99725.47;;;4.67;100.00
11349;BME280;5729;43.570;27.826;2023-02-17T01:56:42;99716.94;;;4.65;100.00
11349;BME280;5729;43.570;27.826;2023-02-17T01:59:16;99717.94;;;4.69;100.00
11349;BME280;5729;43.570;27.826;2023-02-17T02:01:42;99710.72;;;4.70;100.00
11349;BME280;5729;43.570;27.826;2023-02-17T02:04:08;99720.81;;;4.73;100.00
11349;BME280;5729;43.570;27.826;2023-02-17T02:06:35;99718.72;;;4.70;100.00
11349;BME280;5729;43.570;27.826;2023-02-17T02:09:08;99710.41;;;4.71;100.00
11349;BME280;5729;43.570;27.826;2023-02-17T02:11:36;99713.88;;;4.72;100.00
11349;BME280;5729;43.570;27.826;2023-02-17T02:14:03;99695.88;;;4.64;100.00
11349;BME280;5729;43.570;27.826;2023-02-17T02:19:34;99702.31;;;4.63;100.00
11349;BME280;5729;43.570;27.826;2023-02-17T02:33:57;99694.88;;;4.37;100.00
11349;BME280;5729;43.570;27.826;2023-02-17T02:38:56;99679.66;;;4.38;100.00
11349;BME280;5729;43.570;27.826;2023-02-17T02:41:28;99684.72;;;4.40;100.00
11349;BME280;5729;43.570;27.826;2023-02-17T02:43:55;99681.41;;;4.43;100.00
11349;BME280;5729;43.570;27.826;2023-02-17T02:46:20;99694.06;;;4.51;100.00
11349;BME280;5729;43.570;27.826;2023-02-17T02:48:46;99688.13;;;4.54;100.00
11349;BME280;5729;43.570;27.826;2023-02-17T03:07:59;99676.25;;;5.04;100.00
11349;BME280;5729;43.570;27.826;2023-02-17T03:10:27;99692.06;;;5.23;100.00
11349;BME280;5729;43.570;27.826;2023-02-17T03:12:53;99695.44;;;5.29;100.00
11349;BME280;5729;43.570;27.826;2023-02-17T03:15:25;99686.31;;;5.30;100.00
11349;BME280;5729;43.570;27.826;2023-02-17T03:17:51;99679.84;;;5.31;100.00
11349;BME280;5729;43.570;27.826;2023-02-17T03:20:17;99689.44;;;5.32;100.00
11349;BME280;5729;43.570;27.826;2023-02-17T03:22:44;99693.22;;;5.31;100.00
11349;BME280;5729;43.570;27.826;2023-02-17T03:25:11;99685.53;;;5.29;100.00
11349;BME280;5729;43.570;27.826;2023-02-17T03:27:37;99675.69;;;5.16;100.00
11349;BME280;5729;43.570;27.826;2023-02-17T03:30:06;99693.47;;;5.21;100.00
11349;BME280;5729;43.570;27.826;2023-02-17T03:32:32;99688.44;;;5.19;100.00
11349;BME280;5729;43.570;27.826;2023-02-17T03:34:57;99689.06;;;5.16;100.00
11349;BME280;5729;43.570;27.826;2023-02-17T03:37:23;99685.91;;;5.14;100.00
11349;BME280;5729;43.570;27.826;2023-02-17T03:39:48;99693.41;;;5.12;100.00
11349;BME280;5729;43.570;27.826;2023-02-17T03:42:14;99685.72;;;5.10;100.00
11349;BME280;5729;43.570;27.826;2023-02-17T03:44:39;99692.16;;;5.09;100.00
11349;BME280;5729;43.570;27.826;2023-02-17T03:47:05;99687.09;;;5.08;100.00
11349;BME280;5729;43.570;27.826;2023-02-17T03:49:31;99683.19;;;5.05;100.00
11349;BME280;5729;43.570;27.826;2023-02-17T03:51:56;99687.53;;;5.01;100.00
11349;BME280;5729;43.570;27.826;2023-02-17T03:54:24;99677.75;;;4.97;100.00
11349;BME280;5729;43.570;27.826;2023-02-17T03:56:49;99686.22;;;4.90;100.00
11349;BME280;5729;43.570;27.826;2023-02-17T03:59:14;99695.13;;;4.86;100.00
11349;BME280;5729;43.570;27.826;2023-02-17T04:01:40;99695.25;;;4.81;100.00
11349;BME280;5729;43.570;27.826;2023-02-17T04:04:05;99693.47;;;4.76;100.00
11349;BME280;5729;43.570;27.826;2023-02-17T04:06:31;99686.75;;;4.79;100.00
11349;BME280;5729;43.570;27.826;2023-02-17T04:08:56;99682.31;;;4.74;100.00
11349;BME280;5729;43.570;27.826;2023-02-17T04:11:22;99692.09;;;4.79;100.00
11349;BME280;5729;43.570;27.826;2023-02-17T04:13:47;99685.75;;;4.74;100.00
11349;BME280;5729;43.570;27.826;2023-02-17T04:16:12;99693.97;;;4.78;100.00
11349;BME280;5729;43.570;27.826;2023-02-17T04:18:38;99689.72;;;4.77;100.00
11349;BME280;5729;43.570;27.826;2023-02-17T04:21:04;99692.69;;;4.75;100.00
11349;BME280;5729;43.570;27.826;2023-02-17T04:23:30;99694.09;;;4.73;100.00
11349;BME280;5729;43.570;27.826;2023-02-17T04:25:55;99703.19;;;4.72;100.00
11349;BME280;5729;43.570;27.826;2023-02-17T04:28:21;99705.38;;;4.70;100.00
11349;BME280;5729;43.570;27.826;2023-02-17T04:30:48;99700.13;;;4.65;100.00
11349;BME280;5729;43.570;27.826;2023-02-17T04:33:14;99707.50;;;4.59;100.00
11349;BME280;5729;43.570;27.826;2023-02-17T04:35:40;99698.28;;;4.52;100.00
11349;BME280;5729;43.570;27.826;2023-02-17T04:38:06;99714.13;;;4.48;100.00
11349;BME280;5729;43.570;27.826;2023-02-17T04:40:32;99709.69;;;4.44;100.00
11349;BME280;5729;43.570;27.826;2023-02-17T04:42:58;99703.56;;;4.43;100.00
11349;BME280;5729;43.570;27.826;2023-02-17T04:45:23;99695.78;;;4.33;100.00
11349;BME280;5729;43.570;27.826;2023-02-17T04:47:50;99708.81;;;4.34;100.00
11349;BME280;5729;43.570;27.826;2023-02-17T04:50:15;99710.50;;;4.30;100.00
11349;BME280;5729;43.570;27.826;2023-02-17T04:52:41;99708.44;;;4.27;100.00
11349;BME280;5729;43.570;27.826;2023-02-17T04:55:07;99707.75;;;4.22;100.00
11349;BME280;5729;43.570;27.826;2023-02-17T04:57:33;99711.50;;;4.21;100.00
11349;BME280;5729;43.570;27.826;2023-02-17T04:59:58;99719.72;;;4.24;100.00
11349;BME280;5729;43.570;27.826;2023-02-17T05:02:23;99719.41;;;4.26;100.00
11349;BME280;5729;43.570;27.826;2023-02-17T05:04:53;99709.63;;;4.21;100.00
11349;BME280;5729;43.570;27.826;2023-02-17T05:07:19;99708.66;;;4.17;100.00
11349;BME280;5729;43.570;27.826;2023-02-17T05:09:44;99714.16;;;4.21;100.00
11349;BME280;5729;43.570;27.826;2023-02-17T05:12:10;99716.53;;;4.22;100.00
11349;BME280;5729;43.570;27.826;2023-02-17T05:14:35;99722.09;;;4.26;100.00
11349;BME280;5729;43.570;27.826;2023-02-17T05:17:01;99720.31;;;4.21;100.00
11349;BME280;5729;43.570;27.826;2023-02-17T05:19:26;99722.19;;;4.21;100.00
11349;BME280;5729;43.570;27.826;2023-02-17T05:21:52;99725.94;;;4.20;100.00
11349;BME280;5729;43.570;27.826;2023-02-17T05:24:17;99719.00;;;4.19;100.00
11349;BME280;5729;43.570;27.826;2023-02-17T05:26:42;99723.47;;;4.10;100.00
11349;BME280;5729;43.570;27.826;2023-02-17T05:29:08;99730.88;;;4.13;100.00
11349;BME280;5729;43.570;27.826;2023-02-17T05:31:33;99743.13;;;4.14;100.00
11349;BME280;5729;43.570;27.826;2023-02-17T05:33:59;99747.28;;;4.20;100.00
11349;BME280;5729;43.570;27.826;2023-02-17T05:36:24;99742.13;;;4.23;100.00
11349;BME280;5729;43.570;27.826;2023-02-17T05:38:50;99745.91;;;4.22;100.00
11349;BME280;5729;43.570;27.826;2023-02-17T05:41:16;99752.09;;;4.31;100.00
11349;BME280;5729;43.570;27.826;2023-02-17T05:43:42;99746.19;;;4.34;100.00
11349;BME280;5729;43.570;27.826;2023-02-17T05:46:08;99748.06;;;4.34;100.00
11349;BME280;5729;43.570;27.826;2023-02-17T05:48:33;99750.41;;;4.49;100.00
11349;BME280;5729;43.570;27.826;2023-02-17T05:50:59;99742.41;;;4.49;100.00
11349;BME280;5729;43.570;27.826;2023-02-17T05:53:25;99748.91;;;4.57;100.00
11349;BME280;5729;43.570;27.826;2023-02-17T05:55:51;99751.28;;;4.58;100.00
11349;BME280;5729;43.570;27.826;2023-02-17T05:58:16;99748.69;;;4.67;100.00
11349;BME280;5729;43.570;27.826;2023-02-17T06:00:42;99747.50;;;4.73;100.00
11349;BME280;5729;43.570;27.826;2023-02-17T06:03:09;99732.06;;;4.70;100.00
11349;BME280;5729;43.570;27.826;2023-02-17T06:05:34;99705.59;;;4.60;100.00
11349;BME280;5729;43.570;27.826;2023-02-17T06:08:00;99761.50;;;4.92;100.00
11349;BME280;5729;43.570;27.826;2023-02-17T06:10:25;99751.00;;;4.96;100.00
11349;BME280;5729;43.570;27.826;2023-02-17T06:12:51;99742.66;;;4.97;100.00
11349;BME280;5729;43.570;27.826;2023-02-17T06:15:16;99719.53;;;4.93;100.00
11349;BME280;5729;43.570;27.826;2023-02-17T06:17:42;99742.44;;;5.07;100.00
11349;BME280;5729;43.570;27.826;2023-02-17T06:20:08;99747.78;;;5.07;100.00
11349;BME280;5729;43.570;27.826;2023-02-17T06:22:34;99741.31;;;5.08;100.00
11349;BME280;5729;43.570;27.826;2023-02-17T06:24:59;99748.78;;;5.20;100.00
11349;BME280;5729;43.570;27.826;2023-02-17T06:27:25;99757.06;;;5.32;100.00
11349;BME280;5729;43.570;27.826;2023-02-17T06:29:50;99707.63;;;5.21;100.00
11349;BME280;5729;43.570;27.826;2023-02-17T06:32:16;99752.22;;;5.65;100.00
11349;BME280;5729;43.570;27.826;2023-02-17T06:34:41;99750.13;;;5.84;100.00
11349;BME280;5729;43.570;27.826;2023-02-17T06:37:07;99765.31;;;5.98;100.00
11349;BME280;5729;43.570;27.826;2023-02-17T06:39:32;99754.81;;;6.10;100.00
11349;BME280;5729;43.570;27.826;2023-02-17T06:41:58;99751.53;;;6.22;100.00
11349;BME280;5729;43.570;27.826;2023-02-17T06:44:23;99745.13;;;6.31;100.00
11349;BME280;5729;43.570;27.826;2023-02-17T06:46:49;99752.38;;;6.31;100.00
11349;BME280;5729;43.570;27.826;2023-02-17T06:49:14;99756.34;;;6.50;100.00
11349;BME280;5729;43.570;27.826;2023-02-17T06:51:40;99754.63;;;6.54;100.00
11349;BME280;5729;43.570;27.826;2023-02-17T06:54:05;99741.72;;;6.65;100.00
11349;BME280;5729;43.570;27.826;2023-02-17T06:56:31;99747.06;;;6.91;100.00
11349;BME280;5729;43.570;27.826;2023-02-17T06:58:57;99757.63;;;7.13;100.00
11349;BME280;5729;43.570;27.826;2023-02-17T07:01:24;99755.56;;;7.27;100.00
11349;BME280;5729;43.570;27.826;2023-02-17T07:03:54;99746.22;;;7.51;100.00
11349;BME280;5729;43.570;27.826;2023-02-17T07:06:20;99759.44;;;7.73;100.00
11349;BME280;5729;43.570;27.826;2023-02-17T07:08:47;99759.34;;;7.90;100.00
11349;BME280;5729;43.570;27.826;2023-02-17T07:11:14;99750.81;;;7.97;100.00
11349;BME280;5729;43.570;27.826;2023-02-17T07:13:40;99758.94;;;8.18;100.00
11349;BME280;5729;43.570;27.826;2023-02-17T07:16:06;99744.66;;;8.26;100.00
11349;BME280;5729;43.570;27.826;2023-02-17T07:18:32;99748.41;;;8.42;100.00
11349;BME280;5729;43.570;27.826;2023-02-17T07:20:58;99747.88;;;8.49;100.00
11349;BME280;5729;43.570;27.826;2023-02-17T07:23:24;99750.53;;;8.57;100.00
11349;BME280;5729;43.570;27.826;2023-02-17T07:25:49;99745.50;;;8.56;100.00
11349;BME280;5729;43.570;27.826;2023-02-17T07:28:15;99754.34;;;8.77;100.00
11349;BME280;5729;43.570;27.826;2023-02-17T07:30:41;99763.69;;;8.92;100.00
11349;BME280;5729;43.570;27.826;2023-02-17T07:33:08;99766.41;;;9.13;100.00
11349;BME280;5729;43.570;27.826;2023-02-17T07:35:34;99767.44;;;9.20;100.00
11349;BME280;5729;43.570;27.826;2023-02-17T07:38:00;99765.06;;;9.19;100.00
11349;BME280;5729;43.570;27.826;2023-02-17T07:40:26;99761.19;;;9.28;100.00
11349;BME280;5729;43.570;27.826;2023-02-17T07:42:53;99769.63;;;9.39;100.00
11349;BME280;5729;43.570;27.826;2023-02-17T07:45:18;99772.53;;;9.34;99.43
11349;BME280;5729;43.570;27.826;2023-02-17T07:47:44;99775.50;;;9.20;100.00
11349;BME280;5729;43.570;27.826;2023-02-17T07:50:10;99786.66;;;9.10;100.00
11349;BME280;5729;43.570;27.826;2023-02-17T07:52:36;99778.84;;;9.17;100.00
11349;BME280;5729;43.570;27.826;2023-02-17T07:55:02;99783.59;;;8.99;100.00
11349;BME280;5729;43.570;27.826;2023-02-17T07:57:28;99793.00;;;9.26;100.00
11349;BME280;5729;43.570;27.826;2023-02-17T07:59:54;99800.34;;;9.38;100.00
11349;BME280;5729;43.570;27.826;2023-02-17T08:02:19;99791.25;;;9.30;100.00
11349;BME280;5729;43.570;27.826;2023-02-17T08:04:45;99769.91;;;9.46;100.00
11349;BME280;5729;43.570;27.826;2023-02-17T08:07:10;99772.16;;;9.56;100.00
11349;BME280;5729;43.570;27.826;2023-02-17T08:09:36;99782.81;;;10.10;100.00
11349;BME280;5729;43.570;27.826;2023-02-17T08:12:20;99783.06;;;10.53;100.00
11349;BME280;5729;43.570;27.826;2023-02-17T08:15:06;99789.31;;;12.41;85.86
11349;BME280;5729;43.570;27.826;2023-02-17T08:17:32;99779.91;;;14.08;71.39
11349;BME280;5729;43.570;27.826;2023-02-17T08:19:58;99776.28;;;15.36;60.09
11349;BME280;5729;43.570;27.826;2023-02-17T08:22:24;99783.41;;;16.25;53.79
11349;BME280;5729;43.570;27.826;2023-02-17T08:24:49;99795.16;;;16.40;49.68
11349;BME280;5729;43.570;27.826;2023-02-17T08:27:16;99792.75;;;16.31;50.28
11349;BME280;5729;43.570;27.826;2023-02-17T08:29:43;99807.84;;;15.81;49.11
11349;BME280;5729;43.570;27.826;2023-02-17T08:32:09;99791.72;;;15.28;50.13
11349;BME280;5729;43.570;27.826;2023-02-17T08:34:36;99796.81;;;14.73;53.50
11349;BME280;5729;43.570;27.826;2023-02-17T08:37:03;99793.56;;;14.38;55.53
11349;BME280;5729;43.570;27.826;2023-02-17T08:39:30;99787.31;;;14.11;57.14
11349;BME280;5729;43.570;27.826;2023-02-17T08:41:55;99788.22;;;14.18;58.35
11349;BME280;5729;43.570;27.826;2023-02-17T08:44:21;99780.75;;;14.87;58.36
11349;BME280;5729;43.570;27.826;2023-02-17T08:46:48;99779.25;;;14.64;55.52
11349;BME280;5729;43.570;27.826;2023-02-17T08:49:16;99792.78;;;13.92;58.72
11349;BME280;5729;43.570;27.826;2023-02-17T08:51:42;99789.59;;;13.63;60.84
11349;BME280;5729;43.570;27.826;2023-02-17T08:54:08;99779.59;;;13.90;62.55
11349;BME280;5729;43.570;27.826;2023-02-17T08:56:36;99792.72;;;14.11;62.02
11349;BME280;5729;43.570;27.826;2023-02-17T08:59:02;99789.69;;;14.92;57.84
11349;BME280;5729;43.570;27.826;2023-02-17T09:01:28;99774.66;;;15.61;55.59
11349;BME280;5729;43.570;27.826;2023-02-17T09:03:57;99786.28;;;16.50;52.51
11349;BME280;5729;43.570;27.826;2023-02-17T09:06:34;99785.31;;;17.66;49.53
11349;BME280;5729;43.570;27.826;2023-02-17T09:09:00;99794.72;;;18.25;45.74
11349;BME280;5729;43.570;27.826;2023-02-17T09:11:26;99786.50;;;18.57;44.92
11349;BME280;5729;43.570;27.826;2023-02-17T09:13:51;99798.22;;;18.11;44.43
11349;BME280;5729;43.570;27.826;2023-02-17T09:16:17;99797.81;;;18.52;44.86
11349;BME280;5729;43.570;27.826;2023-02-17T09:18:45;99802.03;;;19.03;43.93
11349;BME280;5729;43.570;27.826;2023-02-17T09:21:11;99794.69;;;20.24;41.81
11349;BME280;5729;43.570;27.826;2023-02-17T09:23:38;99790.97;;;20.01;41.07
11349;BME280;5729;43.570;27.826;2023-02-17T09:26:06;99811.44;;;20.78;38.77
11349;BME280;5729;43.570;27.826;2023-02-17T09:28:33;99787.00;;;20.94;38.73
11349;BME280;5729;43.570;27.826;2023-02-17T09:31:07;99796.34;;;20.15;39.54
11349;BME280;5729;43.570;27.826;2023-02-17T09:33:32;99794.28;;;20.74;38.23
11349;BME280;5729;43.570;27.826;2023-02-17T09:35:59;99794.59;;;20.42;39.41
11349;BME280;5729;43.570;27.826;2023-02-17T09:38:24;99800.56;;;20.26;38.61
11349;BME280;5729;43.570;27.826;2023-02-17T09:40:50;99781.69;;;19.11;41.04
11349;BME280;5729;43.570;27.826;2023-02-17T09:43:25;99784.84;;;19.02;40.88
11349;BME280;5729;43.570;27.826;2023-02-17T09:45:57;99780.16;;;19.06;41.95
11349;BME280;5729;43.570;27.826;2023-02-17T09:48:29;99778.72;;;18.09;42.83
11349;BME280;5729;43.570;27.826;2023-02-17T09:50:59;99775.22;;;18.20;45.00
11349;BME280;5729;43.570;27.826;2023-02-17T09:53:33;99784.56;;;18.68;42.67
11349;BME280;5729;43.570;27.826;2023-02-17T09:56:03;99775.97;;;18.63;43.28
11349;BME280;5729;43.570;27.826;2023-02-17T09:58:52;99779.06;;;18.75;42.17
11349;BME280;5729;43.570;27.826;2023-02-17T10:01:21;99768.56;;;18.52;43.08
11349;BME280;5729;43.570;27.826;2023-02-17T10:04:21;99770.50;;;18.66;43.08
11349;BME280;5729;43.570;27.826;2023-02-17T10:06:59;99768.97;;;17.87;44.29
11349;BME280;5729;43.570;27.826;2023-02-17T10:09:37;99775.25;;;16.87;45.64
11349;BME280;5729;43.570;27.826;2023-02-17T10:12:25;99771.41;;;15.52;49.12
11349;BME280;5729;43.570;27.826;2023-02-17T10:15:00;99766.56;;;14.71;54.42
11349;BME280;5729;43.570;27.826;2023-02-17T10:17:50;99763.34;;;14.62;61.20
11349;BME280;5729;43.570;27.826;2023-02-17T10:20:36;99764.97;;;14.97;59.04
11349;BME280;5729;43.570;27.826;2023-02-17T10:25:48;99756.97;;;15.81;56.71
11349;BME280;5729;43.570;27.826;2023-02-17T10:28:21;99754.34;;;16.40;51.79
11349;BME280;5729;43.570;27.826;2023-02-17T10:33:28;99747.88;;;17.49;49.00
11349;BME280;5729;43.570;27.826;2023-02-17T10:36:10;99743.06;;;17.03;49.45
11349;BME280;5729;43.570;27.826;2023-02-17T10:41:53;99754.16;;;18.06;46.02
11349;BME280;5729;43.570;27.826;2023-02-17T10:44:22;99757.28;;;18.22;45.75
11349;BME280;5729;43.570;27.826;2023-02-17T10:46:50;99742.84;;;18.43;44.72
11349;BME280;5729;43.570;27.826;2023-02-17T10:49:29;99731.66;;;19.25;44.36
11349;BME280;5729;43.570;27.826;2023-02-17T10:52:09;99741.25;;;19.57;42.28
11349;BME280;5729;43.570;27.826;2023-02-17T10:54:47;99745.59;;;20.07;42.45
11349;BME280;5729;43.570;27.826;2023-02-17T10:57:16;99737.56;;;20.71;40.74
11349;BME280;5729;43.570;27.826;2023-02-17T10:59:43;99731.69;;;21.33;41.29
11349;BME280;5729;43.570;27.826;2023-02-17T11:02:24;99720.94;;;22.23;37.66
11349;BME280;5729;43.570;27.826;2023-02-17T11:04:53;99729.50;;;22.25;36.64
11349;BME280;5729;43.570;27.826;2023-02-17T11:07:30;99732.53;;;22.11;37.10
11349;BME280;5729;43.570;27.826;2023-02-17T11:10:00;99728.91;;;22.37;36.65
11349;BME280;5729;43.570;27.826;2023-02-17T11:12:31;99720.91;;;21.77;36.90
11349;BME280;5729;43.570;27.826;2023-02-17T11:14:58;99716.47;;;22.53;36.40
11349;BME280;5729;43.570;27.826;2023-02-17T11:17:34;99702.91;;;22.22;36.60
11349;BME280;5729;43.570;27.826;2023-02-17T11:20:24;99709.91;;;22.66;36.50
11349;BME280;5729;43.570;27.826;2023-02-17T11:25:31;99710.16;;;23.67;34.76
11349;BME280;5729;43.570;27.826;2023-02-17T11:27:59;99710.09;;;23.35;33.74
11349;BME280;5729;43.570;27.826;2023-02-17T11:30:26;99712.56;;;23.81;33.17
11349;BME280;5729;43.570;27.826;2023-02-17T11:32:53;99708.16;;;23.68;33.28
11349;BME280;5729;43.570;27.826;2023-02-17T11:38:00;99708.59;;;23.66;33.96
11349;BME280;5729;43.570;27.826;2023-02-17T11:40:30;99708.34;;;23.41;33.61
11349;BME280;5729;43.570;27.826;2023-02-17T11:42:58;99703.59;;;22.89;34.28
11349;BME280;5729;43.570;27.826;2023-02-17T11:45:26;99702.91;;;22.22;35.23
11349;BME280;5729;43.570;27.826;2023-02-17T11:48:04;99698.22;;;21.72;36.54
11349;BME280;5729;43.570;27.826;2023-02-17T11:50:42;99692.44;;;21.40;38.08
11349;BME280;5729;43.570;27.826;2023-02-17T11:56:15;99684.75;;;22.28;36.42
11349;BME280;5729;43.570;27.826;2023-02-17T11:59:06;99690.13;;;21.89;36.18
11349;BME280;5729;43.570;27.826;2023-02-17T12:01:58;99686.28;;;21.83;36.59
11349;BME280;5729;43.570;27.826;2023-02-17T12:04:30;99676.25;;;21.49;37.15
11349;BME280;5729;43.570;27.826;2023-02-17T12:12:33;99687.22;;;21.49;37.28
11349;BME280;5729;43.570;27.826;2023-02-17T12:21:28;99682.84;;;20.98;38.68
11349;BME280;5729;43.570;27.826;2023-02-17T12:27:09;99682.97;;;20.16;39.39
11349;BME280;5729;43.570;27.826;2023-02-17T12:35:20;99694.81;;;18.74;41.61
11349;BME280;5729;43.570;27.826;2023-02-17T12:37:54;99680.75;;;18.82;42.37
11349;BME280;5729;43.570;27.826;2023-02-17T12:40:52;99689.38;;;18.52;43.08
11349;BME280;5729;43.570;27.826;2023-02-17T12:45:53;99696.53;;;17.79;44.19
11349;BME280;5729;43.570;27.826;2023-02-17T12:51:04;99688.69;;;17.46;45.19
11349;BME280;5729;43.570;27.826;2023-02-17T12:53:42;99685.09;;;17.10;47.11
11349;BME280;5729;43.570;27.826;2023-02-17T12:58:50;99673.78;;;17.00;47.86
11349;BME280;5729;43.570;27.826;2023-02-17T13:01:18;99689.06;;;16.43;49.51
11349;BME280;5729;43.570;27.826;2023-02-17T13:03:46;99683.50;;;16.25;51.11
11349;BME280;5729;43.570;27.826;2023-02-17T13:11:32;99688.59;;;15.76;57.03
11349;BME280;5729;43.570;27.826;2023-02-17T13:14:25;99684.56;;;15.55;58.37
11349;BME280;5729;43.570;27.826;2023-02-17T13:16:51;99690.41;;;15.24;60.39
11349;BME280;5729;43.570;27.826;2023-02-17T13:19:28;99677.75;;;14.98;61.15
11349;BME280;5729;43.570;27.826;2023-02-17T13:21:55;99689.66;;;14.90;59.72
11349;BME280;5729;43.570;27.826;2023-02-17T13:24:50;99689.03;;;14.70;60.65
11349;BME280;5729;43.570;27.826;2023-02-17T13:27:21;99683.31;;;14.79;60.26
11349;BME280;5729;43.570;27.826;2023-02-17T13:32:36;99688.88;;;14.60;62.52
11349;BME280;5729;43.570;27.826;2023-02-17T13:37:51;99683.31;;;14.23;68.77
11349;BME280;5729;43.570;27.826;2023-02-17T13:42:52;99696.25;;;14.06;67.03
11349;BME280;5729;43.570;27.826;2023-02-17T13:45:30;99683.34;;;14.00;69.19
11349;BME280;5729;43.570;27.826;2023-02-17T13:48:05;99690.56;;;14.15;69.07
11349;BME280;5729;43.570;27.826;2023-02-17T13:50:48;99679.56;;;14.31;68.92
11349;BME280;5729;43.570;27.826;2023-02-17T13:53:24;99682.84;;;14.17;68.85
11349;BME280;5729;43.570;27.826;2023-02-17T13:55:52;99689.63;;;14.30;67.68
11349;BME280;5729;43.570;27.826;2023-02-17T13:58:26;99689.41;;;13.90;69.29
11349;BME280;5729;43.570;27.826;2023-02-17T14:00:52;99685.84;;;14.08;68.66
11349;BME280;5729;43.570;27.826;2023-02-17T14:03:34;99692.88;;;13.90;71.98
11349;BME280;5729;43.570;27.826;2023-02-17T14:06:06;99689.72;;;13.85;72.92
11349;BME280;5729;43.570;27.826;2023-02-17T14:08:41;99691.41;;;13.70;72.62
11349;BME280;5729;43.570;27.826;2023-02-17T14:11:07;99690.38;;;13.55;75.15
11349;BME280;5729;43.570;27.826;2023-02-17T14:13:35;99687.13;;;13.46;77.40
11349;BME280;5729;43.570;27.826;2023-02-17T14:16:02;99688.28;;;13.45;77.09
11349;BME280;5729;43.570;27.826;2023-02-17T14:18:34;99687.91;;;13.47;73.73
11349;BME280;5729;43.570;27.826;2023-02-17T14:21:11;99679.13;;;13.30;76.89
11349;BME280;5729;43.570;27.826;2023-02-17T14:23:49;99687.09;;;13.23;78.90
11349;BME280;5729;43.570;27.826;2023-02-17T14:29:02;99672.19;;;13.33;76.02
11349;BME280;5729;43.570;27.826;2023-02-17T14:31:39;99673.41;;;13.35;79.11
11349;BME280;5729;43.570;27.826;2023-02-17T14:34:05;99663.78;;;13.38;77.21
11349;BME280;5729;43.570;27.826;2023-02-17T14:36:35;99658.53;;;13.26;75.84
11349;BME280;5729;43.570;27.826;2023-02-17T14:39:03;99660.09;;;13.27;76.77
11349;BME280;5729;43.570;27.826;2023-02-17T14:41:29;99659.94;;;13.39;75.69
11349;BME280;5729;43.570;27.826;2023-02-17T14:43:54;99668.34;;;13.34;74.36